Martinsburg, Missouri
Current Conditions -  °F | °C
As of 9:54 AM on Friday 21 Nov 2014 (Local Time) from KCOU Reporting Station
Clear Clear  
Wind Chill: -3°   Ceiling: Unl
Heat Index:   Visibility: 10mi
Dew Point: -7°   Wind: 13mph
Humidity: 52%   Direction: 120°ESE
Pressure: 30.32"   Gusts: 22mph
Location:  39.1°N, 91.65°W
Report Text: KCOU 211554Z 12011G19KT 10SM CLR 02/M07 A3032 RMK AO2 SLP277 T00171072
Loading
Personal Weather Stations






























Interactive Weather Map New forecast layout! Learn more

10-Day Weather Forecast

Advertisements
Track Severe Weather on mobile